Time;durP1;ratioP1;P1;durP2;ratioP2;P2;SDS_P1;SDS_P2;PMS_P1;PMS_P2;Temp;Humidity;BMP_temperature;BMP_pressure;BME280_temperature;BME280_humidity;BME280_pressure;Samples;Min_cycle;Max_cycle;Signal;HPM_P1;HPM_P2
2023/06/18 00:01:27;;;;;;;5.27;4.80;;;13.40;99.90;;;;;;5047031;28;20574;-80
2023/06/18 00:03:55;;;;;;;4.87;4.30;;;13.30;99.90;;;;;;5046185;28;20954;-80
2023/06/18 00:06:24;;;;;;;4.63;3.73;;;13.30;99.90;;;;;;5049696;28;20457;-80
2023/06/18 00:08:50;;;;;;;6.70;4.97;;;13.30;99.90;;;;;;5048775;28;20452;-80
2023/06/18 00:11:17;;;;;;;7.10;5.60;;;13.20;99.90;;;;;;5052961;28;20488;-81
2023/06/18 00:13:44;;;;;;;4.30;3.90;;;13.20;99.90;;;;;;5053970;28;20511;-80
2023/06/18 00:16:11;;;;;;;5.63;4.70;;;13.20;99.90;;;;;;5051889;28;20538;-80
2023/06/18 00:18:38;;;;;;;4.77;4.40;;;13.20;99.90;;;;;;5050007;28;20440;-79
2023/06/18 00:21:07;;;;;;;5.53;4.93;;;13.20;99.90;;;;;;5048075;28;20493;-80
2023/06/18 00:23:36;;;;;;;4.00;3.70;;;13.30;99.90;;;;;;5058276;28;20556;-80
2023/06/18 00:26:03;;;;;;;7.00;4.93;;;13.10;99.90;;;;;;5048005;28;20465;-81
2023/06/18 00:28:31;;;;;;;4.10;3.80;;;13.00;99.90;;;;;;5048033;28;20852;-80
2023/06/18 00:30:58;;;;;;;5.77;5.27;;;13.00;99.90;;;;;;5049136;28;20542;-80
2023/06/18 00:33:25;;;;;;;8.57;5.67;;;13.00;99.90;;;;;;5050630;28;20530;-80
2023/06/18 00:35:56;;;;;;;6.20;5.53;;;13.00;99.90;;;;;;5048635;28;20453;-80
2023/06/18 00:38:23;;;;;;;6.80;4.67;;;13.00;99.90;;;;;;5049641;28;20464;-80
2023/06/18 00:40:52;;;;;;;5.40;4.90;;;13.00;99.90;;;;;;5052145;28;20481;-80
2023/06/18 00:43:19;;;;;;;5.90;5.40;;;13.00;99.90;;;;;;5054739;28;21334;-81
2023/06/18 00:45:47;;;;;;;6.43;5.83;;;12.90;99.90;;;;;;5043123;28;20469;-81
2023/06/18 00:48:14;;;;;;;5.30;4.90;;;12.80;99.90;;;;;;5048770;28;20475;-80
2023/06/18 00:50:41;;;;;;;5.70;5.17;;;12.70;99.90;;;;;;5042549;28;20490;-80
2023/06/18 00:53:12;;;;;;;6.30;4.97;;;12.70;99.90;;;;;;5044523;28;20588;-80
2023/06/18 00:55:39;;;;;;;6.70;6.10;;;12.70;99.90;;;;;;5048478;28;20948;-80
2023/06/18 00:58:08;;;;;;;8.10;5.37;;;12.70;99.90;;;;;;5046583;28;20461;-81
2023/06/18 01:00:35;;;;;;;5.97;5.47;;;12.70;99.90;;;;;;5048561;28;20449;-80
2023/06/18 01:03:03;;;;;;;7.07;6.37;;;12.60;99.90;;;;;;5047444;28;20489;-81
2023/06/18 01:05:31;;;;;;;6.00;5.50;;;12.60;99.90;;;;;;5049062;28;20461;-80
2023/06/18 01:07:59;;;;;;;5.97;5.27;;;12.50;99.90;;;;;;5047984;28;20445;-80
2023/06/18 01:10:29;;;;;;;6.67;5.43;;;12.60;99.90;;;;;;5046541;28;20888;-81
2023/06/18 01:12:57;;;;;;;6.57;5.67;;;12.60;99.90;;;;;;5047147;28;20513;-79
2023/06/18 01:15:27;;;;;;;6.57;5.97;;;12.60;99.90;;;;;;5040335;28;20471;-80
2023/06/18 01:17:57;;;;;;;6.80;5.50;;;12.40;99.90;;;;;;5048374;28;20805;-79
2023/06/18 01:20:27;;;;;;;5.93;5.43;;;12.40;99.90;;;;;;5046762;28;20465;-81
2023/06/18 01:23:00;;;;;;;6.30;5.70;;;12.40;99.90;;;;;;5048257;28;20534;-80
2023/06/18 01:25:32;;;;;;;7.63;6.40;;;12.30;99.90;;;;;;5039312;28;20462;-80
2023/06/18 01:28:00;;;;;;;6.63;5.97;;;12.20;99.90;;;;;;5029471;28;20449;-80
2023/06/18 01:30:28;;;;;;;6.37;5.87;;;12.10;99.90;;;;;;5037940;28;20541;-80
2023/06/18 01:32:55;;;;;;;7.00;6.30;;;12.20;99.90;;;;;;5030618;28;20573;-80
2023/06/18 01:35:24;;;;;;;6.30;5.70;;;12.10;99.90;;;;;;5038891;28;20541;-81
2023/06/18 01:38:19;;;;;;;7.60;6.50;;;12.20;99.90;;;;;;5037956;28;20504;-80
2023/06/18 01:40:50;;;;;;;6.17;5.53;;;12.20;99.90;;;;;;5035703;28;20442;-80
2023/06/18 01:43:26;;;;;;;6.33;5.73;;;12.20;99.90;;;;;;5038979;28;20534;-81
2023/06/18 01:46:02;;;;;;;6.50;5.63;;;12.20;99.90;;;;;;5027396;28;20473;-80
2023/06/18 01:48:34;;;;;;;6.17;5.67;;;12.30;99.90;;;;;;5034528;28;20496;-80
2023/06/18 01:51:04;;;;;;;7.73;7.13;;;12.30;99.90;;;;;;5033660;28;20480;-80
2023/06/18 01:53:33;;;;;;;7.50;6.80;;;12.20;99.90;;;;;;5046089;28;20520;-80
2023/06/18 01:56:02;;;;;;;6.70;6.10;;;12.00;99.90;;;;;;5043714;28;20466;-80
2023/06/18 01:58:31;;;;;;;7.77;6.50;;;11.90;99.90;;;;;;5044982;28;20574;-82
2023/06/18 02:00:59;;;;;;;7.37;6.67;;;11.80;99.90;;;;;;5047524;28;20863;-81
2023/06/18 02:03:26;;;;;;;7.20;6.50;;;11.80;99.90;;;;;;5045913;28;20885;-82
2023/06/18 02:05:53;;;;;;;7.23;6.63;;;11.80;99.90;;;;;;5044044;28;20462;-81
2023/06/18 02:08:20;;;;;;;6.87;6.27;;;11.70;99.90;;;;;;5038393;28;20801;-82
2023/06/18 02:10:48;;;;;;;6.87;6.20;;;11.70;99.90;;;;;;5038988;28;20483;-81
2023/06/18 02:13:15;;;;;;;6.20;5.70;;;11.60;99.90;;;;;;5035227;28;20514;-81
2023/06/18 02:15:42;;;;;;;6.70;6.10;;;11.60;99.90;;;;;;5037050;28;20830;-81
2023/06/18 02:18:11;;;;;;;6.90;6.30;;;11.60;99.90;;;;;;5037894;28;20466;-81
2023/06/18 02:20:39;;;;;;;6.67;6.07;;;11.60;99.90;;;;;;5034376;28;20622;-81
2023/06/18 02:23:06;;;;;;;6.20;5.73;;;11.60;99.90;;;;;;5027638;28;20512;-81
2023/06/18 02:25:33;;;;;;;7.30;6.50;;;11.50;99.90;;;;;;5039620;28;20501;-81
2023/06/18 02:28:01;;;;;;;6.70;6.10;;;11.50;99.90;;;;;;5030132;28;21236;-81
2023/06/18 02:30:29;;;;;;;6.93;6.33;;;11.50;99.90;;;;;;5041638;28;20507;-81
2023/06/18 02:32:56;;;;;;;7.43;6.40;;;11.50;99.90;;;;;;5041236;28;21032;-82
2023/06/18 02:35:25;;;;;;;6.33;5.83;;;11.50;99.90;;;;;;5033867;28;20483;-81
2023/06/18 02:37:52;;;;;;;8.67;6.43;;;11.50;99.90;;;;;;5027308;28;20466;-81
2023/06/18 02:40:20;;;;;;;8.03;7.33;;;11.60;99.90;;;;;;5032913;28;20523;-81
2023/06/18 02:42:50;;;;;;;6.30;5.63;;;11.70;99.90;;;;;;5035258;28;20450;-81
2023/06/18 02:45:18;;;;;;;7.33;6.63;;;11.70;99.90;;;;;;5034124;28;20469;-82
2023/06/18 02:47:46;;;;;;;6.43;5.83;;;11.80;99.90;;;;;;5037009;28;20470;-81
2023/06/18 02:50:13;;;;;;;7.90;6.40;;;11.80;99.90;;;;;;5034887;28;20504;-81
2023/06/18 02:52:42;;;;;;;9.70;6.47;;;11.70;99.90;;;;;;5042056;28;20516;-82
2023/06/18 02:55:10;;;;;;;6.90;6.30;;;11.70;99.90;;;;;;5043838;28;20488;-81
2023/06/18 02:57:37;;;;;;;6.40;5.40;;;11.70;99.90;;;;;;5046876;28;20457;-80
2023/06/18 03:00:08;;;;;;;6.90;6.20;;;11.70;99.90;;;;;;5043501;28;21066;-81
2023/06/18 03:02:36;;;;;;;6.40;5.80;;;11.60;99.90;;;;;;5040533;28;20596;-81
2023/06/18 03:05:03;;;;;;;5.20;4.70;;;11.60;99.90;;;;;;5034416;28;20450;-81
2023/06/18 03:07:31;;;;;;;6.33;5.83;;;11.60;99.90;;;;;;5043619;28;20535;-81
2023/06/18 03:09:59;;;;;;;6.03;5.53;;;11.60;99.90;;;;;;5047004;28;20485;-82
2023/06/18 03:12:28;;;;;;;6.33;5.70;;;11.60;99.90;;;;;;5042215;28;20493;-80
2023/06/18 03:14:55;;;;;;;7.30;6.43;;;11.60;99.90;;;;;;5044486;28;20457;-81
2023/06/18 03:17:22;;;;;;;6.53;5.97;;;11.60;99.90;;;;;;5046538;28;20943;-81
2023/06/18 03:19:49;;;;;;;7.90;6.60;;;11.70;99.90;;;;;;5045230;28;20503;-81
2023/06/18 03:22:16;;;;;;;5.83;5.30;;;11.70;99.90;;;;;;5037402;28;21416;-80
2023/06/18 03:24:43;;;;;;;7.80;6.10;;;11.70;99.90;;;;;;5047186;28;20449;-82
2023/06/18 03:27:11;;;;;;;10.83;6.10;;;11.70;99.90;;;;;;5045537;28;20961;-82
2023/06/18 03:29:38;;;;;;;6.57;5.97;;;11.70;99.90;;;;;;5043214;28;20543;-80
2023/06/18 03:32:06;;;;;;;6.57;5.50;;;11.80;99.90;;;;;;5046734;28;20857;-82
2023/06/18 03:34:33;;;;;;;5.87;5.33;;;11.80;99.90;;;;;;5045567;28;21098;-82
2023/06/18 03:37:01;;;;;;;8.70;5.90;;;11.90;99.90;;;;;;5039690;28;20499;-81
2023/06/18 03:39:28;;;;;;;6.20;5.30;;;12.00;99.90;;;;;;5047234;28;20519;-80
2023/06/18 03:41:55;;;;;;;5.57;5.13;;;12.10;99.90;;;;;;5041986;28;20453;-81
2023/06/18 03:44:23;;;;;;;5.50;5.00;;;12.20;99.90;;;;;;5046443;28;20464;-81
2023/06/18 03:46:51;;;;;;;5.77;5.27;;;12.30;99.90;;;;;;5043696;28;20454;-81
2023/06/18 03:49:18;;;;;;;5.33;4.83;;;12.30;99.90;;;;;;5046153;28;20459;-81
2023/06/18 03:51:45;;;;;;;6.27;5.67;;;12.30;99.90;;;;;;5044923;28;20522;-82
2023/06/18 03:54:12;;;;;;;7.20;5.60;;;12.40;99.90;;;;;;5045232;28;21121;-82
2023/06/18 03:56:39;;;;;;;5.97;5.37;;;12.50;99.90;;;;;;5044383;28;20441;-83
2023/06/18 03:59:07;;;;;;;6.10;5.50;;;12.60;99.90;;;;;;5037981;28;21077;-83
2023/06/18 04:01:35;;;;;;;6.60;5.37;;;12.60;99.90;;;;;;5047260;28;20480;-81
2023/06/18 04:04:03;;;;;;;5.07;4.67;;;12.70;99.90;;;;;;5037616;28;20869;-81
2023/06/18 04:06:30;;;;;;;4.93;4.43;;;12.80;99.90;;;;;;5044870;28;20461;-82
2023/06/18 04:08:57;;;;;;;6.40;4.40;;;12.90;99.90;;;;;;5047150;28;20442;-82
2023/06/18 04:11:24;;;;;;;10.50;6.40;;;12.90;99.90;;;;;;5046566;28;20539;-82
2023/06/18 04:13:51;;;;;;;5.17;4.77;;;13.00;99.90;;;;;;5042502;28;20477;-83
2023/06/18 04:16:18;;;;;;;6.20;4.67;;;13.10;99.90;;;;;;5041827;28;20539;-82
2023/06/18 04:18:46;;;;;;;6.50;5.97;;;13.20;99.90;;;;;;5035017;28;20477;-82
2023/06/18 04:21:13;;;;;;;5.83;5.33;;;13.30;99.90;;;;;;5039363;28;20450;-83
2023/06/18 04:23:41;;;;;;;5.90;5.30;;;13.40;99.90;;;;;;5030018;28;20930;-82
2023/06/18 04:26:08;;;;;;;5.63;5.13;;;13.50;99.90;;;;;;5037536;28;20455;-83
2023/06/18 04:28:35;;;;;;;6.40;5.90;;;13.80;99.90;;;;;;5040923;28;20465;-82
2023/06/18 04:31:02;;;;;;;5.67;5.07;;;14.00;99.90;;;;;;5039416;28;20539;-83
2023/06/18 04:33:29;;;;;;;5.60;5.10;;;14.20;99.90;;;;;;5038024;28;20485;-82
2023/06/18 04:35:57;;;;;;;7.03;4.80;;;14.20;99.90;;;;;;5037291;28;20969;-82
2023/06/18 04:38:24;;;;;;;9.23;5.77;;;14.40;99.90;;;;;;5040331;28;20469;-82
2023/06/18 04:40:51;;;;;;;5.10;4.73;;;14.80;99.90;;;;;;5045602;28;20445;-81
2023/06/18 04:43:18;;;;;;;6.73;5.30;;;14.70;99.90;;;;;;5034226;28;20481;-82
2023/06/18 04:45:46;;;;;;;7.83;5.10;;;14.60;99.90;;;;;;5037261;28;20461;-82
2023/06/18 04:48:14;;;;;;;6.67;6.07;;;14.70;99.90;;;;;;5033122;28;20445;-82
2023/06/18 04:50:41;;;;;;;5.80;5.20;;;14.80;99.90;;;;;;5034817;28;20445;-81
2023/06/18 04:53:09;;;;;;;6.40;5.60;;;14.80;99.90;;;;;;5039641;28;21186;-81
2023/06/18 04:55:37;;;;;;;5.90;4.87;;;14.70;99.90;;;;;;5032943;28;20551;-81
2023/06/18 04:58:04;;;;;;;5.93;4.77;;;14.70;99.90;;;;;;5039774;28;20464;-82
2023/06/18 05:00:33;;;;;;;6.23;4.83;;;14.90;99.90;;;;;;5034683;28;20454;-83
2023/06/18 05:03:00;;;;;;;4.60;4.20;;;15.10;99.90;;;;;;5036979;28;21026;-82
2023/06/18 05:05:27;;;;;;;7.83;4.57;;;15.20;99.90;;;;;;5041985;28;20453;-81
2023/06/18 05:07:55;;;;;;;4.63;4.23;;;15.40;99.90;;;;;;5044689;28;20910;-81
2023/06/18 05:10:23;;;;;;;6.33;5.37;;;15.60;99.90;;;;;;5045847;28;20469;-82
2023/06/18 05:12:50;;;;;;;10.57;5.07;;;15.80;99.90;;;;;;5046464;28;20453;-82
2023/06/18 05:15:17;;;;;;;6.27;5.60;;;15.80;99.90;;;;;;5042883;28;20489;-83
2023/06/18 05:17:44;;;;;;;4.97;4.50;;;15.90;99.90;;;;;;5030819;28;20880;-82
2023/06/18 05:20:12;;;;;;;6.17;4.80;;;15.90;99.90;;;;;;5039233;28;20478;-82
2023/06/18 05:22:40;;;;;;;6.30;5.70;;;16.00;99.90;;;;;;5044099;28;20445;-83
2023/06/18 05:25:07;;;;;;;5.70;5.23;;;16.00;99.90;;;;;;5038218;28;20456;-82
2023/06/18 05:27:36;;;;;;;5.90;4.80;;;16.20;99.90;;;;;;5028395;28;20458;-82
2023/06/18 05:30:03;;;;;;;6.13;4.70;;;16.20;99.90;;;;;;5040128;28;20488;-82
2023/06/18 05:32:30;;;;;;;4.53;4.23;;;16.20;99.90;;;;;;5040878;28;20840;-83
2023/06/18 05:34:57;;;;;;;5.60;5.20;;;16.40;99.90;;;;;;5044881;28;20570;-80
2023/06/18 05:37:24;;;;;;;9.03;4.40;;;16.50;99.90;;;;;;5045690;28;20504;-81
2023/06/18 05:39:52;;;;;;;6.40;5.90;;;16.50;99.90;;;;;;5036628;28;20453;-82
2023/06/18 05:42:19;;;;;;;5.50;4.97;;;16.80;99.90;;;;;;5037728;28;20450;-82
2023/06/18 05:44:48;;;;;;;6.20;5.80;;;16.90;99.90;;;;;;5031640;28;20466;-82
2023/06/18 05:47:15;;;;;;;5.73;5.33;;;16.80;99.90;;;;;;5045584;28;20507;-82
2023/06/18 05:49:42;;;;;;;8.87;6.00;;;16.80;99.90;;;;;;5035827;28;20500;-82
2023/06/18 05:52:09;;;;;;;7.00;6.50;;;17.00;99.90;;;;;;5031798;28;20488;-82
2023/06/18 05:54:36;;;;;;;5.40;5.00;;;17.00;99.90;;;;;;5039548;28;20572;-82
2023/06/18 05:57:03;;;;;;;7.10;6.43;;;17.20;99.90;;;;;;5032780;28;20454;-83
2023/06/18 05:59:30;;;;;;;5.17;4.67;;;17.30;99.90;;;;;;5038828;28;20915;-83
2023/06/18 06:01:58;;;;;;;5.83;5.33;;;17.40;99.90;;;;;;5032762;28;20500;-83
2023/06/18 06:04:25;;;;;;;5.63;5.13;;;17.70;99.90;;;;;;5028273;28;20536;-82
2023/06/18 06:06:52;;;;;;;6.70;6.10;;;17.90;99.90;;;;;;5042299;28;20480;-82
2023/06/18 06:09:19;;;;;;;6.20;5.60;;;18.10;99.90;;;;;;5046845;28;20523;-83
2023/06/18 06:11:46;;;;;;;13.17;5.40;;;18.20;99.90;;;;;;5048105;28;20485;-83
2023/06/18 06:14:13;;;;;;;5.73;5.23;;;18.30;99.90;;;;;;5046813;28;20521;-82
2023/06/18 06:16:40;;;;;;;5.17;4.77;;;18.10;99.90;;;;;;5047502;28;20494;-81
2023/06/18 06:19:09;;;;;;;5.53;5.13;;;18.30;99.90;;;;;;5047089;28;20518;-82
2023/06/18 06:21:36;;;;;;;5.77;5.27;;;18.40;99.90;;;;;;5047086;28;20498;-83
2023/06/18 06:24:03;;;;;;;8.03;5.83;;;18.70;99.90;;;;;;5047712;28;20446;-82
2023/06/18 06:26:30;;;;;;;5.30;4.80;;;18.90;99.90;;;;;;5047200;28;20526;-82
2023/06/18 06:28:57;;;;;;;6.00;5.50;;;18.90;99.60;;;;;;5046640;28;20929;-82
2023/06/18 06:31:24;;;;;;;6.43;5.70;;;19.10;99.00;;;;;;5037154;28;20541;-82
2023/06/18 06:33:51;;;;;;;5.03;4.67;;;19.40;98.20;;;;;;5037300;28;20522;-82
2023/06/18 06:36:19;;;;;;;5.63;5.23;;;19.70;97.80;;;;;;5040380;28;20450;-83
2023/06/18 06:38:46;;;;;;;3.53;3.23;;;19.70;98.90;;;;;;5034888;28;20460;-83
2023/06/18 06:41:13;;;;;;;5.30;4.90;;;19.50;98.70;;;;;;5032994;28;20524;-82
2023/06/18 06:43:40;;;;;;;5.13;4.63;;;19.50;99.60;;;;;;5044420;28;20492;-82
2023/06/18 06:46:07;;;;;;;5.57;5.10;;;19.60;97.90;;;;;;5042222;28;20485;-83
2023/06/18 06:48:34;;;;;;;5.87;5.37;;;20.00;96.30;;;;;;5039048;28;20552;-83
2023/06/18 06:51:01;;;;;;;5.17;4.60;;;19.80;95.60;;;;;;5042544;28;20453;-83
2023/06/18 06:53:30;;;;;;;5.90;5.33;;;20.00;96.30;;;;;;5044141;28;20550;-83
2023/06/18 06:55:57;;;;;;;6.00;5.40;;;19.80;96.30;;;;;;5045242;28;20488;-82
2023/06/18 06:58:23;;;;;;;6.40;4.70;;;20.10;96.10;;;;;;5038803;28;20497;-84
2023/06/18 07:00:50;;;;;;;6.40;5.80;;;20.30;95.80;;;;;;5045421;28;20481;-83
2023/06/18 07:03:18;;;;;;;5.17;4.87;;;20.60;95.50;;;;;;5037636;28;21139;-83
2023/06/18 07:05:45;;;;;;;6.83;5.73;;;20.80;96.20;;;;;;5028951;28;20454;-83
2023/06/18 07:08:12;;;;;;;5.20;4.83;;;21.00;95.10;;;;;;5042425;28;20975;-82
2023/06/18 07:10:41;;;;;;;5.57;5.00;;;20.80;96.00;;;;;;5039784;28;20552;-83
2023/06/18 07:13:08;;;;;;;6.73;5.57;;;21.00;95.70;;;;;;5042959;28;20493;-83
2023/06/18 07:15:34;;;;;;;6.80;5.87;;;21.10;96.80;;;;;;5038569;28;20517;-83
2023/06/18 07:18:01;;;;;;;9.23;7.60;;;21.00;94.60;;;;;;5037244;28;20519;-84
2023/06/18 07:20:28;;;;;;;11.60;5.33;;;20.90;94.90;;;;;;5030180;28;20514;-83
2023/06/18 07:22:55;;;;;;;6.87;6.17;;;20.90;94.60;;;;;;5040804;28;20543;-84
2023/06/18 07:25:22;;;;;;;5.27;4.87;;;21.10;93.90;;;;;;5042436;28;21035;-84
2023/06/18 07:27:51;;;;;;;6.07;5.57;;;21.20;92.90;;;;;;5042740;28;20466;-82
2023/06/18 07:30:18;;;;;;;7.03;6.37;;;21.10;94.20;;;;;;5036430;28;20497;-83
2023/06/18 07:32:44;;;;;;;5.40;4.80;;;21.20;93.90;;;;;;5045925;28;20538;-82
2023/06/18 07:35:11;;;;;;;6.27;5.83;;;21.40;95.20;;;;;;5034738;28;20531;-82
2023/06/18 07:37:39;;;;;;;6.77;6.27;;;21.80;93.10;;;;;;5037010;28;20465;-83
2023/06/18 07:40:07;;;;;;;5.37;4.83;;;21.90;93.20;;;;;;5044482;28;20446;-82
2023/06/18 07:42:33;;;;;;;5.97;5.47;;;22.00;94.00;;;;;;5049369;28;20572;-82
2023/06/18 07:45:02;;;;;;;5.47;5.07;;;22.30;91.70;;;;;;5038308;28;20834;-83
2023/06/18 07:47:29;;;;;;;6.50;5.83;;;22.20;91.60;;;;;;5039488;28;20457;-82
2023/06/18 07:49:56;;;;;;;4.87;4.57;;;22.30;91.40;;;;;;5039300;28;20473;-83
2023/06/18 07:52:23;;;;;;;5.40;4.90;;;22.50;90.80;;;;;;5041325;28;20539;-83
2023/06/18 07:54:50;;;;;;;5.33;4.93;;;22.60;92.10;;;;;;5041273;28;20481;-82
2023/06/18 07:57:17;;;;;;;6.30;5.73;;;22.60;90.40;;;;;;5041775;28;20892;-82
2023/06/18 07:59:44;;;;;;;5.83;5.30;;;22.90;90.60;;;;;;5047511;28;20534;-82
2023/06/18 08:02:12;;;;;;;5.97;5.47;;;23.10;88.90;;;;;;5041012;28;21056;-82
2023/06/18 08:04:39;;;;;;;5.20;4.80;;;23.00;89.30;;;;;;5039174;28;20453;-82
2023/06/18 08:07:06;;;;;;;7.23;5.73;;;23.00;84.60;;;;;;5047099;28;20518;-82
2023/06/18 08:09:33;;;;;;;5.97;5.47;;;23.00;83.40;;;;;;5050880;28;20476;-82
2023/06/18 08:12:00;;;;;;;5.93;5.43;;;23.30;86.20;;;;;;5045331;28;20461;-82
2023/06/18 08:14:28;;;;;;;6.70;6.03;;;23.20;85.20;;;;;;5047556;28;20485;-82
2023/06/18 08:16:55;;;;;;;7.10;4.97;;;23.20;87.40;;;;;;5046386;28;20538;-83
2023/06/18 08:19:23;;;;;;;5.80;5.30;;;23.30;79.70;;;;;;5046774;28;20542;-83
2023/06/18 08:21:52;;;;;;;5.60;5.13;;;23.30;83.80;;;;;;5045607;28;20489;-83
2023/06/18 08:24:19;;;;;;;6.33;5.73;;;23.30;78.20;;;;;;5037108;28;20468;-83
2023/06/18 08:26:46;;;;;;;5.60;5.17;;;23.40;85.20;;;;;;5036278;28;20543;-82
2023/06/18 08:29:13;;;;;;;5.07;4.57;;;23.50;78.80;;;;;;5030325;28;20456;-83
2023/06/18 08:31:41;;;;;;;5.17;4.67;;;23.60;76.90;;;;;;5046441;28;20466;-83
2023/06/18 08:34:08;;;;;;;5.40;4.90;;;23.70;79.90;;;;;;5043140;28;20507;-82
2023/06/18 08:36:36;;;;;;;6.50;5.80;;;23.60;74.60;;;;;;5041514;28;20544;-83
2023/06/18 08:39:05;;;;;;;5.97;5.37;;;23.80;78.80;;;;;;5040633;28;20504;-81
2023/06/18 08:41:32;;;;;;;8.63;6.70;;;23.70;74.40;;;;;;5034847;28;20470;-82
2023/06/18 08:44:00;;;;;;;6.00;5.40;;;23.90;77.70;;;;;;5046514;28;20523;-84
2023/06/18 08:46:29;;;;;;;6.03;5.20;;;23.70;76.90;;;;;;5041601;28;20657;-82
2023/06/18 08:49:00;;;;;;;5.93;5.40;;;24.10;77.50;;;;;;5039832;28;20502;-82
2023/06/18 08:51:28;;;;;;;5.23;4.90;;;24.40;74.80;;;;;;5042392;28;20451;-84
2023/06/18 08:54:02;;;;;;;5.47;5.13;;;24.80;75.80;;;;;;5036386;28;20489;-83
2023/06/18 08:56:31;;;;;;;6.20;5.70;;;25.00;72.40;;;;;;5035502;28;20470;-83
2023/06/18 08:58:59;;;;;;;6.17;5.60;;;24.60;69.80;;;;;;5046330;28;20486;-82
2023/06/18 09:01:27;;;;;;;5.50;5.03;;;24.40;70.00;;;;;;5041799;28;20932;-82
2023/06/18 09:03:55;;;;;;;6.17;5.67;;;24.50;68.50;;;;;;5044096;28;20462;-84
2023/06/18 09:06:23;;;;;;;5.70;5.30;;;24.40;72.00;;;;;;5043646;28;20476;-81
2023/06/18 09:08:50;;;;;;;6.07;5.67;;;24.80;65.30;;;;;;5037549;28;20459;-82
2023/06/18 09:11:19;;;;;;;5.30;4.90;;;24.70;64.50;;;;;;5045812;28;20493;-82
2023/06/18 09:13:46;;;;;;;7.00;5.07;;;24.70;65.90;;;;;;5048928;28;20487;-81
2023/06/18 09:16:15;;;;;;;5.63;5.13;;;24.80;65.50;;;;;;5041835;28;20629;-85
2023/06/18 09:18:43;;;;;;;5.10;4.67;;;25.10;59.70;;;;;;5039517;28;20553;-82
2023/06/18 09:21:11;;;;;;;6.30;5.70;;;25.10;63.40;;;;;;5046311;28;20528;-83
2023/06/18 09:23:40;;;;;;;4.70;4.17;;;25.30;57.70;;;;;;5044675;28;20474;-82
2023/06/18 09:26:08;;;;;;;4.70;4.40;;;25.30;53.10;;;;;;5037709;28;20961;-82
2023/06/18 09:28:38;;;;;;;4.93;4.53;;;25.40;54.20;;;;;;5047852;28;20459;-82
2023/06/18 09:31:06;;;;;;;4.27;3.97;;;25.60;52.60;;;;;;5037922;28;20498;-82
2023/06/18 09:33:34;;;;;;;6.43;5.43;;;25.70;53.20;;;;;;5045827;28;20464;-83
2023/06/18 09:36:03;;;;;;;5.70;3.97;;;25.60;53.40;;;;;;5039119;28;20498;-84
2023/06/18 09:38:35;;;;;;;4.77;4.37;;;25.60;53.80;;;;;;5040763;28;20479;-82
2023/06/18 09:41:02;;;;;;;5.17;4.77;;;25.90;60.60;;;;;;5040789;28;20468;-84
2023/06/18 09:43:37;;;;;;;5.10;4.60;;;25.70;54.40;;;;;;5041890;28;20902;-81
2023/06/18 09:46:06;;;;;;;6.77;6.07;;;25.90;56.40;;;;;;5040050;28;20496;-83
2023/06/18 09:48:35;;;;;;;5.60;5.10;;;26.00;55.00;;;;;;5041201;28;20476;-84
2023/06/18 09:51:02;;;;;;;7.53;6.93;;;26.10;53.60;;;;;;5032852;28;20477;-81
2023/06/18 09:53:29;;;;;;;3.97;3.67;;;26.20;56.20;;;;;;5029137;28;20446;-83
2023/06/18 09:56:08;;;;;;;4.60;4.23;;;26.50;50.30;;;;;;5029797;28;20517;-83
2023/06/18 09:58:42;;;;;;;4.70;4.27;;;26.50;48.00;;;;;;5040480;28;20500;-82
2023/06/18 10:01:09;;;;;;;4.30;3.90;;;26.40;49.80;;;;;;5040420;28;20481;-82
2023/06/18 10:03:36;;;;;;;5.10;4.70;;;26.70;51.60;;;;;;5036313;28;20469;-84
2023/06/18 10:06:12;;;;;;;4.07;3.77;;;26.80;48.00;;;;;;5044170;28;20474;-83
2023/06/18 10:08:43;;;;;;;7.20;3.77;;;27.00;46.70;;;;;;5032214;28;20475;-83
2023/06/18 10:11:11;;;;;;;3.87;3.67;;;27.10;47.10;;;;;;5033289;28;20478;-85
2023/06/18 10:13:45;;;;;;;6.50;4.80;;;26.90;44.80;;;;;;5042754;28;20522;-83
2023/06/18 10:16:14;;;;;;;4.70;4.40;;;27.00;46.40;;;;;;5032309;28;21012;-84
2023/06/18 10:18:51;;;;;;;4.10;3.80;;;26.80;43.70;;;;;;5038656;28;20461;-82
2023/06/18 10:21:19;;;;;;;4.43;3.77;;;27.30;43.50;;;;;;5042180;28;21029;-83
2023/06/18 10:23:51;;;;;;;3.77;3.40;;;27.40;41.80;;;;;;5043548;28;20464;-82
2023/06/18 10:26:19;;;;;;;3.20;3.00;;;27.60;41.30;;;;;;5041959;28;20469;-83
2023/06/18 10:28:48;;;;;;;3.80;3.23;;;27.50;37.30;;;;;;5041152;28;20520;-82
2023/06/18 10:31:16;;;;;;;3.30;3.00;;;27.50;33.40;;;;;;5037800;28;20469;-82
2023/06/18 10:33:43;;;;;;;3.70;2.70;;;27.40;29.00;;;;;;5039695;28;20441;-83
2023/06/18 10:36:11;;;;;;;2.73;2.40;;;27.70;26.60;;;;;;5038897;28;20555;-84
2023/06/18 10:38:38;;;;;;;3.20;3.00;;;27.50;28.90;;;;;;5040266;28;20505;-83
2023/06/18 10:41:10;;;;;;;3.10;2.90;;;27.50;29.30;;;;;;5031673;28;20985;-83
2023/06/18 10:43:39;;;;;;;3.00;2.70;;;28.10;34.50;;;;;;5033592;28;20480;-84
2023/06/18 10:46:13;;;;;;;3.33;3.03;;;28.30;31.30;;;;;;5031768;28;20492;-83
2023/06/18 10:48:41;;;;;;;3.27;3.07;;;28.40;30.30;;;;;;5032674;28;20469;-84
2023/06/18 10:51:15;;;;;;;4.73;4.40;;;28.60;32.10;;;;;;5031866;28;20617;-83
2023/06/18 10:53:43;;;;;;;4.03;3.73;;;28.60;33.20;;;;;;5041620;28;20959;-82
2023/06/18 10:56:11;;;;;;;4.37;3.57;;;28.10;30.20;;;;;;5032008;28;20970;-82
2023/06/18 10:58:41;;;;;;;3.50;3.20;;;28.10;31.50;;;;;;5036775;28;20492;-82
2023/06/18 11:01:08;;;;;;;4.50;4.20;;;28.40;34.90;;;;;;5028099;28;20452;-82
2023/06/18 11:03:39;;;;;;;3.77;3.47;;;28.50;32.90;;;;;;5032754;28;20497;-83
2023/06/18 11:06:10;;;;;;;3.27;3.07;;;28.20;30.70;;;;;;5046195;28;20458;-83
2023/06/18 11:08:37;;;;;;;3.97;3.67;;;28.40;29.80;;;;;;5049139;28;20465;-83
2023/06/18 11:11:06;;;;;;;3.57;3.27;;;28.30;30.20;;;;;;5046274;28;20467;-85
2023/06/18 11:13:37;;;;;;;4.60;3.60;;;28.00;27.80;;;;;;5045788;28;20462;-85
2023/06/18 11:16:15;;;;;;;3.77;3.20;;;27.90;26.70;;;;;;5047047;28;21174;-83
2023/06/18 11:18:44;;;;;;;3.73;3.33;;;27.20;30.50;;;;;;5050486;28;20542;-82
2023/06/18 11:21:16;;;;;;;4.53;4.23;;;27.40;29.20;;;;;;5052245;28;20549;-84
2023/06/18 11:23:43;;;;;;;4.10;3.80;;;27.70;27.80;;;;;;5045705;28;20493;-82
2023/06/18 11:26:15;;;;;;;4.17;3.77;;;27.90;25.90;;;;;;5039773;28;20475;-83
2023/06/18 11:28:42;;;;;;;3.50;3.20;;;27.80;27.40;;;;;;5030366;28;20646;-83
2023/06/18 11:31:09;;;;;;;3.20;3.00;;;27.80;27.90;;;;;;5041286;28;20454;-82
2023/06/18 11:33:36;;;;;;;3.33;3.03;;;27.80;28.40;;;;;;5045607;28;20497;-83
2023/06/18 11:36:13;;;;;;;4.33;4.03;;;27.80;28.80;;;;;;5042142;28;20495;-84
2023/06/18 11:38:41;;;;;;;3.40;3.20;;;28.10;26.10;;;;;;5040240;28;20446;-83
2023/06/18 11:41:10;;;;;;;8.10;3.27;;;28.10;28.80;;;;;;5036328;28;21047;-83
2023/06/18 11:43:47;;;;;;;3.60;3.30;;;28.00;25.40;;;;;;5040555;28;20545;-83
2023/06/18 11:46:29;;;;;;;3.87;3.53;;;28.10;26.70;;;;;;5046811;28;20462;-84
2023/06/18 11:48:56;;;;;;;3.30;3.10;;;28.40;25.70;;;;;;5046052;28;20498;-83
2023/06/18 11:51:26;;;;;;;3.77;3.47;;;28.30;26.80;;;;;;5048464;28;20479;-83
2023/06/18 11:53:54;;;;;;;3.70;3.50;;;28.40;29.70;;;;;;5046618;28;20513;-83
2023/06/18 11:56:25;;;;;;;4.07;3.77;;;28.60;31.60;;;;;;5046948;28;20541;-83
2023/06/18 11:58:53;;;;;;;5.23;4.13;;;28.70;29.90;;;;;;5040529;28;20571;-83
2023/06/18 12:01:20;;;;;;;3.90;3.57;;;28.60;27.50;;;;;;5047674;28;20447;-83
2023/06/18 12:03:47;;;;;;;4.13;3.83;;;28.40;26.10;;;;;;5043338;28;20492;-84
2023/06/18 12:06:15;;;;;;;3.90;3.70;;;28.20;27.00;;;;;;5049978;28;20498;-84
2023/06/18 12:08:47;;;;;;;4.40;3.60;;;28.20;27.90;;;;;;5047663;28;20455;-82
2023/06/18 12:11:29;;;;;;;4.17;3.87;;;28.50;28.10;;;;;;5044424;28;20545;-82
2023/06/18 12:14:01;;;;;;;3.70;3.50;;;28.40;25.40;;;;;;5036352;28;20948;-82
2023/06/18 12:16:31;;;;;;;4.00;3.70;;;28.50;26.20;;;;;;5041482;28;21216;-83
2023/06/18 12:19:03;;;;;;;4.27;3.63;;;28.60;27.50;;;;;;5039431;28;20479;-83
2023/06/18 12:21:31;;;;;;;4.57;4.20;;;28.40;25.60;;;;;;5045487;28;20547;-83
2023/06/18 12:23:59;;;;;;;4.27;3.97;;;28.70;26.70;;;;;;5040434;28;20469;-81
2023/06/18 12:26:27;;;;;;;4.57;4.17;;;28.80;25.60;;;;;;5041687;28;20502;-81
2023/06/18 12:28:57;;;;;;;4.40;3.40;;;28.90;25.30;;;;;;5043994;28;20739;-82
2023/06/18 12:31:24;;;;;;;4.13;3.80;;;28.80;26.40;;;;;;5038127;28;20757;-82
2023/06/18 12:33:51;;;;;;;3.90;3.53;;;28.60;24.10;;;;;;5041981;28;20498;-81
2023/06/18 12:36:25;;;;;;;4.03;3.73;;;28.60;25.40;;;;;;5047395;28;20584;-80
2023/06/18 12:38:52;;;;;;;3.97;3.67;;;28.80;29.60;;;;;;5041884;28;20532;-85
2023/06/18 12:41:25;;;;;;;4.03;3.83;;;28.90;29.20;;;;;;5040515;28;20539;-81
2023/06/18 12:43:53;;;;;;;5.03;4.20;;;28.80;25.50;;;;;;5038758;28;20550;-82
2023/06/18 12:46:26;;;;;;;5.47;4.97;;;28.90;24.10;;;;;;5042564;28;20545;-81
2023/06/18 12:48:54;;;;;;;4.33;4.03;;;28.90;27.60;;;;;;5047514;28;20931;-83
2023/06/18 12:51:21;;;;;;;6.33;3.73;;;28.80;27.60;;;;;;5040278;28;20469;-82